createdAt,value
2023-02-13T00:01:28.421Z,1.00
2023-02-13T00:04:31.628Z,1.10
2023-02-13T00:07:34.852Z,1.00
2023-02-13T00:10:38.657Z,1.10
2023-02-13T00:13:43.343Z,1.10
2023-02-13T00:16:46.528Z,1.10
2023-02-13T00:19:49.830Z,1.10
2023-02-13T00:22:53.381Z,1.10
2023-02-13T00:25:56.682Z,1.20
2023-02-13T00:29:01.232Z,1.20
2023-02-13T00:32:04.706Z,1.20
2023-02-13T00:35:09.231Z,1.30
2023-02-13T00:38:12.450Z,1.30
2023-02-13T00:41:17.272Z,1.30
2023-02-13T00:44:21.808Z,1.40
2023-02-13T00:47:25.130Z,1.40
2023-02-13T00:50:28.343Z,1.40
2023-02-13T00:53:31.690Z,1.40
2023-02-13T00:56:34.993Z,1.50
2023-02-13T00:59:39.534Z,1.50
2023-02-13T01:02:42.767Z,1.50
2023-02-13T01:05:46.512Z,1.60
2023-02-13T01:08:49.711Z,1.50
2023-02-13T01:11:52.899Z,1.60
2023-02-13T01:14:57.764Z,1.50
2023-02-13T01:18:01.156Z,1.50
2023-02-13T01:21:06.902Z,1.50
2023-02-13T01:24:10.166Z,1.50
2023-02-13T01:27:13.353Z,1.40
2023-02-13T01:30:20.126Z,1.50
2023-02-13T01:33:24.564Z,1.50
2023-02-13T01:36:28.262Z,1.60
2023-02-13T01:39:31.624Z,1.50
2023-02-13T01:42:36.643Z,1.60
2023-02-13T01:45:41.791Z,1.60
2023-02-13T01:48:47.857Z,1.60
2023-02-13T01:51:55.014Z,1.70
2023-02-13T01:54:58.452Z,1.60
2023-02-13T01:58:07.582Z,1.60
2023-02-13T02:01:13.066Z,1.60
2023-02-13T02:04:22.551Z,1.60
2023-02-13T02:07:29.426Z,1.60
2023-02-13T02:10:40.178Z,1.60
2023-02-13T02:13:43.751Z,1.60
2023-02-13T02:16:49.364Z,1.60
2023-02-13T02:20:02.377Z,1.60
2023-02-13T02:23:49.552Z,1.70
2023-02-13T02:27:11.353Z,1.60
2023-02-13T02:30:44.184Z,1.60
2023-02-13T02:33:59.120Z,1.60
2023-02-13T02:37:18.398Z,1.60
2023-02-13T02:40:28.556Z,1.70
2023-02-13T02:43:47.203Z,1.60
2023-02-13T02:47:16.972Z,1.60
2023-02-13T02:50:35.438Z,1.60
2023-02-13T02:53:44.647Z,1.50
2023-02-13T02:56:50.029Z,1.50
2023-02-13T03:03:43.679Z,1.60
2023-02-13T03:06:52.934Z,1.60
2023-02-13T03:10:16.713Z,1.70
2023-02-13T03:13:34.288Z,1.70
2023-02-13T03:16:54.054Z,1.70
2023-02-13T03:20:22.021Z,1.70
2023-02-13T03:23:37.015Z,1.70
2023-02-13T03:26:50.131Z,1.80
2023-02-13T03:30:11.383Z,1.80
2023-02-13T03:33:27.264Z,1.80
2023-02-13T03:37:00.713Z,1.80
2023-02-13T03:40:10.104Z,1.80
2023-02-13T03:43:16.513Z,1.90
2023-02-13T03:46:20.901Z,1.90
2023-02-13T03:49:45.382Z,1.90
2023-02-13T03:52:53.020Z,1.90
2023-02-13T03:56:17.800Z,1.90
2023-02-13T03:59:27.961Z,2.00
2023-02-13T04:02:36.004Z,2.10
2023-02-13T04:05:44.449Z,2.10
2023-02-13T04:08:47.975Z,2.10
2023-02-13T04:11:59.008Z,2.10
2023-02-13T04:15:10.014Z,2.20
2023-02-13T04:18:18.515Z,2.10
2023-02-13T04:21:21.861Z,2.20
2023-02-13T04:24:25.318Z,2.20
2023-02-13T04:27:30.134Z,2.20
2023-02-13T04:30:33.588Z,2.20
2023-02-13T04:33:36.786Z,2.20
2023-02-13T04:36:39.997Z,2.20
2023-02-13T04:39:43.134Z,2.20
2023-02-13T04:42:49.085Z,2.20
2023-02-13T04:45:53.090Z,2.20
2023-02-13T04:48:56.482Z,2.30
2023-02-13T04:51:59.696Z,2.20
2023-02-13T04:55:02.821Z,2.20
2023-02-13T04:58:07.390Z,2.20
2023-02-13T05:01:14.318Z,2.20
2023-02-13T05:04:17.699Z,2.20
2023-02-13T05:07:21.068Z,2.30
2023-02-13T05:10:24.255Z,2.30
2023-02-13T05:13:29.285Z,2.30
2023-02-13T05:16:32.660Z,2.30
2023-02-13T05:19:35.927Z,2.40
2023-02-13T05:23:07.958Z,2.30
2023-02-13T05:26:11.192Z,2.40
2023-02-13T05:29:22.778Z,2.30
2023-02-13T05:32:26.061Z,2.40
2023-02-13T05:35:29.309Z,2.40
2023-02-13T05:38:33.807Z,2.50
2023-02-13T05:41:37.098Z,2.50
2023-02-13T05:44:41.734Z,2.50
2023-02-13T05:47:44.984Z,2.50
2023-02-13T05:50:48.314Z,2.50
2023-02-13T05:53:51.748Z,2.50
2023-02-13T05:56:55.076Z,2.60
2023-02-13T05:59:59.625Z,2.60
2023-02-13T06:03:02.877Z,2.70
2023-02-13T06:06:06.764Z,2.70
2023-02-13T06:09:10.005Z,2.70
2023-02-13T06:12:13.173Z,2.80
2023-02-13T06:15:18.269Z,2.80
2023-02-13T06:18:21.559Z,2.80
2023-02-13T06:21:25.016Z,2.90
2023-02-13T06:24:28.303Z,2.90
2023-02-13T06:27:31.464Z,2.90
2023-02-13T06:30:36.133Z,2.90
2023-02-13T06:33:39.329Z,3.00
2023-02-13T06:36:42.701Z,3.00
2023-02-13T06:39:45.816Z,3.00
2023-02-13T06:42:49.051Z,3.10
2023-02-13T06:45:53.925Z,3.10
2023-02-13T06:48:57.156Z,3.10
2023-02-13T06:52:00.352Z,3.10
2023-02-13T06:55:03.997Z,3.20
2023-02-13T06:58:07.664Z,3.20
2023-02-13T07:01:12.514Z,3.20
2023-02-13T07:04:15.848Z,3.20
2023-02-13T07:07:19.107Z,3.30
2023-02-13T07:10:22.531Z,3.20
2023-02-13T07:13:25.857Z,3.30
2023-02-13T07:16:30.491Z,3.30
2023-02-13T07:19:34.123Z,3.30
2023-02-13T07:22:37.589Z,3.30
2023-02-13T07:25:40.798Z,3.30
2023-02-13T07:28:44.042Z,3.40
2023-02-13T07:31:48.969Z,3.40
2023-02-13T07:35:01.188Z,3.40
2023-02-13T07:38:05.244Z,3.40
2023-02-13T07:41:08.548Z,3.40
2023-02-13T07:44:12.110Z,3.50
2023-02-13T07:47:18.954Z,3.60
2023-02-13T07:50:23.428Z,3.60
2023-02-13T07:53:26.637Z,3.60
2023-02-13T07:56:29.908Z,3.70
2023-02-13T07:59:33.140Z,3.70
2023-02-13T08:02:37.838Z,3.70
2023-02-13T08:05:41.533Z,3.70
2023-02-13T08:08:44.757Z,3.80
2023-02-13T08:11:56.306Z,3.80
2023-02-13T08:14:59.927Z,3.80
2023-02-13T08:18:04.615Z,3.90
2023-02-13T08:21:07.884Z,3.90
2023-02-13T08:24:11.492Z,4.00
2023-02-13T08:27:15.741Z,4.10
2023-02-13T08:30:21.285Z,4.30
2023-02-13T08:33:25.885Z,4.50
2023-02-13T08:36:29.170Z,4.60
2023-02-13T08:39:32.625Z,4.60
2023-02-13T08:42:35.926Z,4.60
2023-02-13T08:45:39.228Z,4.50
2023-02-13T08:48:44.038Z,4.50
2023-02-13T08:51:47.267Z,4.60
2023-02-13T08:54:50.538Z,4.60
2023-02-13T08:57:53.873Z,4.70
2023-02-13T09:00:57.436Z,5.00
2023-02-13T09:04:01.997Z,5.10
2023-02-13T09:07:05.374Z,5.10
2023-02-13T09:10:09.512Z,5.10
2023-02-13T09:13:13.422Z,5.10
2023-02-13T09:16:17.095Z,5.20
2023-02-13T09:19:21.835Z,5.40
2023-02-13T09:22:25.223Z,5.40
2023-02-13T09:25:28.515Z,5.40
2023-02-13T09:28:32.316Z,5.40
2023-02-13T09:31:35.691Z,5.50
2023-02-13T09:34:40.279Z,5.60
2023-02-13T09:37:43.767Z,5.80
2023-02-13T09:40:51.998Z,5.90
2023-02-13T09:43:59.596Z,5.90
2023-02-13T09:47:07.566Z,6.10
2023-02-13T09:50:17.930Z,6.10
2023-02-13T09:53:24.374Z,6.20
2023-02-13T09:56:41.806Z,6.20
2023-02-13T09:59:57.761Z,6.00
2023-02-13T10:03:30.074Z,6.00
2023-02-13T10:06:49.892Z,5.80
2023-02-13T10:10:01.766Z,5.90
2023-02-13T10:13:23.818Z,5.90
2023-02-13T10:16:31.684Z,5.80
2023-02-13T10:19:43.999Z,5.90
2023-02-13T10:22:53.100Z,6.00
2023-02-13T10:26:00.689Z,6.10
2023-02-13T10:29:28.078Z,6.10
2023-02-13T10:32:37.954Z,6.20
2023-02-13T10:35:42.272Z,6.20
2023-02-13T10:38:56.229Z,6.20
2023-02-13T10:42:08.636Z,6.30
2023-02-13T10:45:29.656Z,6.30
2023-02-13T10:48:50.901Z,6.30
2023-02-13T10:52:04.138Z,6.30
2023-02-13T10:55:22.333Z,6.20
2023-02-13T10:58:35.512Z,6.10
2023-02-13T11:01:45.925Z,6.20
2023-02-13T11:04:50.610Z,6.50
2023-02-13T11:07:54.028Z,6.50
2023-02-13T11:10:58.616Z,6.50
2023-02-13T11:14:16.389Z,6.40
2023-02-13T11:17:20.281Z,6.50
2023-02-13T11:20:30.781Z,6.60
2023-02-13T11:23:45.131Z,6.60
2023-02-13T11:26:53.784Z,6.50
2023-02-13T11:29:59.035Z,6.40
2023-02-13T11:33:05.104Z,6.20
2023-02-13T11:36:10.606Z,6.20
2023-02-13T11:39:20.034Z,6.00
2023-02-13T11:42:29.269Z,6.00
2023-02-13T11:45:32.499Z,6.20
2023-02-13T11:48:36.366Z,6.40
2023-02-13T11:51:42.499Z,6.50
2023-02-13T11:54:46.895Z,6.50
2023-02-13T11:58:01.435Z,6.30
2023-02-13T12:01:25.361Z,6.10
2023-02-13T12:04:28.667Z,5.90
2023-02-13T12:07:33.389Z,5.80
2023-02-13T12:10:38.572Z,5.60
2023-02-13T12:13:43.720Z,5.50
2023-02-13T12:16:51.450Z,5.50
2023-02-13T12:19:55.580Z,5.50
2023-02-13T12:23:08.308Z,5.40
2023-02-13T12:26:24.697Z,5.50
2023-02-13T12:29:51.928Z,5.60
2023-02-13T12:33:30.170Z,5.50
2023-02-13T12:37:03.828Z,5.50
2023-02-13T12:40:28.224Z,5.50
2023-02-13T12:43:51.071Z,5.50
2023-02-13T12:47:06.418Z,5.50
2023-02-13T12:50:29.432Z,5.50
2023-02-13T12:53:53.970Z,5.50
2023-02-13T12:57:19.449Z,5.70
2023-02-13T13:00:36.039Z,5.60
2023-02-13T13:03:51.536Z,5.60
2023-02-13T13:07:09.946Z,5.60
2023-02-13T13:10:39.577Z,5.40
2023-02-13T13:13:55.624Z,5.40
2023-02-13T13:17:04.463Z,5.20
2023-02-13T13:20:36.539Z,5.20
2023-02-13T13:23:46.332Z,5.10
2023-02-13T13:26:54.185Z,5.10
2023-02-13T13:30:00.258Z,5.20
2023-02-13T13:33:08.569Z,5.50
2023-02-13T13:36:20.445Z,5.60
2023-02-13T13:39:40.135Z,5.50
2023-02-13T13:42:50.769Z,5.50
2023-02-13T13:46:06.864Z,5.40
2023-02-13T13:49:24.088Z,5.40
2023-02-13T13:52:30.414Z,5.40
2023-02-13T13:56:04.928Z,5.40
2023-02-13T13:59:18.566Z,5.40
2023-02-13T14:02:38.634Z,5.30
2023-02-13T14:06:01.577Z,5.30
2023-02-13T14:09:49.145Z,5.30
2023-02-13T14:13:02.625Z,5.50
2023-02-13T14:16:08.014Z,5.60
2023-02-13T14:19:27.601Z,5.50
2023-02-13T14:22:37.949Z,5.30
2023-02-13T14:25:42.561Z,5.30
2023-02-13T14:28:59.245Z,5.20
2023-02-13T14:32:09.536Z,5.10
2023-02-13T14:35:19.109Z,5.10
2023-02-13T14:38:26.237Z,5.10
2023-02-13T14:41:46.053Z,5.00
2023-02-13T14:44:52.241Z,4.90
2023-02-13T14:47:58.455Z,4.80
2023-02-13T14:51:02.777Z,4.70
2023-02-13T14:54:11.103Z,4.70
2023-02-13T14:57:20.602Z,4.70
2023-02-13T15:00:30.283Z,4.60
2023-02-13T15:03:42.002Z,4.70
2023-02-13T15:06:47.234Z,4.70
2023-02-13T15:09:53.990Z,4.70
2023-02-13T15:13:00.624Z,4.70
2023-02-13T15:16:07.568Z,4.70
2023-02-13T15:19:17.930Z,4.60
2023-02-13T15:22:21.998Z,4.60
2023-02-13T15:25:33.457Z,4.60
2023-02-13T15:28:38.487Z,4.60
2023-02-13T15:31:42.066Z,4.60
2023-02-13T15:34:49.306Z,4.60
2023-02-13T15:37:52.633Z,4.60
2023-02-13T15:41:00.420Z,4.50
2023-02-13T15:44:06.679Z,4.50
2023-02-13T15:47:18.950Z,4.50
2023-02-13T15:50:28.171Z,4.50
2023-02-13T15:53:31.645Z,4.50
2023-02-13T15:56:38.963Z,4.50
2023-02-13T15:59:44.252Z,4.60
2023-02-13T16:02:48.903Z,4.40
2023-02-13T16:05:52.543Z,4.50
2023-02-13T16:08:58.189Z,4.40
2023-02-13T16:12:08.486Z,4.40
2023-02-13T16:15:19.678Z,4.40
2023-02-13T16:18:22.932Z,4.40
2023-02-13T16:21:29.195Z,4.40
2023-02-13T16:24:33.487Z,4.40
2023-02-13T16:27:39.414Z,4.40
2023-02-13T16:30:46.648Z,4.40
2023-02-13T16:33:50.201Z,4.30
2023-02-13T16:36:56.175Z,4.30
2023-02-13T16:40:33.305Z,4.30
2023-02-13T16:43:47.645Z,4.20
2023-02-13T16:46:57.266Z,4.20
2023-02-13T16:50:02.096Z,4.20
2023-02-13T16:53:05.967Z,4.20
2023-02-13T16:56:12.714Z,4.10
2023-02-13T16:59:27.494Z,4.20
2023-02-13T17:02:33.813Z,4.20
2023-02-13T17:05:37.228Z,4.20
2023-02-13T17:08:40.726Z,4.10
2023-02-13T17:11:49.124Z,4.20
2023-02-13T17:14:55.762Z,4.20
2023-02-13T17:18:01.270Z,4.20
2023-02-13T17:21:04.863Z,4.20
2023-02-13T17:24:09.326Z,4.10
2023-02-13T17:27:13.098Z,4.10
2023-02-13T17:30:17.467Z,4.10
2023-02-13T17:33:25.623Z,4.10
2023-02-13T17:36:29.003Z,4.10
2023-02-13T17:39:32.812Z,4.20
2023-02-13T17:42:37.440Z,4.20
2023-02-13T17:45:41.626Z,4.20
2023-02-13T17:48:46.439Z,4.10
2023-02-13T17:51:50.771Z,4.10
2023-02-13T17:54:54.339Z,4.10
2023-02-13T17:57:59.374Z,4.10
2023-02-13T18:01:03.546Z,4.10
2023-02-13T18:04:08.454Z,4.10
2023-02-13T18:07:13.116Z,4.10
2023-02-13T18:10:18.924Z,4.00
2023-02-13T18:13:22.188Z,4.00
2023-02-13T18:16:25.533Z,4.00
2023-02-13T18:19:30.316Z,4.00
2023-02-13T18:22:33.580Z,3.90
2023-02-13T18:25:37.453Z,3.90
2023-02-13T18:28:40.691Z,3.90
2023-02-13T18:31:44.527Z,3.90
2023-02-13T18:34:50.152Z,3.90
2023-02-13T18:37:53.748Z,3.90
2023-02-13T18:40:58.013Z,3.90
2023-02-13T18:44:01.436Z,3.80
2023-02-13T18:47:05.132Z,3.90
2023-02-13T18:50:11.386Z,3.80
2023-02-13T18:53:17.302Z,3.90
2023-02-13T18:56:23.195Z,3.80
2023-02-13T18:59:26.925Z,3.80
2023-02-13T19:02:32.480Z,3.90
2023-02-13T19:05:42.031Z,3.90
2023-02-13T19:08:45.888Z,3.90
2023-02-13T19:11:49.924Z,3.90
2023-02-13T19:14:54.004Z,3.90
2023-02-13T19:17:59.585Z,3.80
2023-02-13T19:21:05.260Z,3.90
2023-02-13T19:24:10.957Z,3.80
2023-02-13T19:27:14.473Z,3.90
2023-02-13T19:30:19.650Z,3.90
2023-02-13T19:33:26.335Z,3.90
2023-02-13T19:36:35.681Z,3.90
2023-02-13T19:39:39.214Z,3.90
2023-02-13T19:42:42.971Z,3.90
2023-02-13T19:45:50.125Z,3.90
2023-02-13T19:48:57.278Z,3.90
2023-02-13T19:52:06.433Z,4.00
2023-02-13T19:55:10.961Z,4.00
2023-02-13T19:58:15.219Z,4.10
2023-02-13T20:01:20.425Z,4.00
2023-02-13T20:04:24.140Z,4.10
2023-02-13T20:07:29.228Z,4.10
2023-02-13T20:10:33.295Z,4.10
2023-02-13T20:13:37.298Z,4.00
2023-02-13T20:16:41.282Z,4.10
2023-02-13T20:19:47.992Z,4.00
2023-02-13T20:22:53.945Z,4.00
2023-02-13T20:25:58.168Z,4.00
2023-02-13T20:29:02.718Z,4.00
2023-02-13T20:32:06.507Z,4.00
2023-02-13T20:35:11.874Z,4.10
2023-02-13T20:38:17.434Z,4.00
2023-02-13T20:41:22.588Z,4.00
2023-02-13T20:44:25.927Z,4.00
2023-02-13T20:47:29.417Z,4.00
2023-02-13T20:50:33.049Z,4.00
2023-02-13T20:53:37.788Z,4.00
2023-02-13T20:56:41.098Z,4.10
2023-02-13T20:59:45.927Z,4.10
2023-02-13T21:02:49.285Z,4.10
2023-02-13T21:05:53.939Z,4.10
2023-02-13T21:09:00.046Z,4.10
2023-02-13T21:12:03.489Z,4.10
2023-02-13T21:15:07.388Z,4.10
2023-02-13T21:18:10.678Z,4.10
2023-02-13T21:21:15.405Z,4.00
2023-02-13T21:24:22.704Z,4.10
2023-02-13T21:27:26.092Z,4.10
2023-02-13T21:30:29.441Z,4.10
2023-02-13T21:33:34.670Z,4.10
2023-02-13T21:36:40.890Z,4.10
2023-02-13T21:39:45.516Z,4.10
2023-02-13T21:42:49.081Z,4.10
2023-02-13T21:45:54.121Z,4.10
2023-02-13T21:48:59.158Z,4.00
2023-02-13T21:52:03.139Z,4.00
2023-02-13T21:55:08.983Z,4.00
2023-02-13T21:58:12.503Z,4.10
2023-02-13T22:01:26.432Z,4.00
2023-02-13T22:04:32.142Z,4.10
2023-02-13T22:07:56.553Z,4.00
2023-02-13T22:11:03.070Z,4.00
2023-02-13T22:14:09.611Z,4.00
2023-02-13T22:17:13.017Z,4.10
2023-02-13T22:20:17.670Z,4.00
2023-02-13T22:23:20.905Z,4.00
2023-02-13T22:26:27.617Z,4.00
2023-02-13T22:29:31.040Z,4.00
2023-02-13T22:32:34.505Z,4.00
2023-02-13T22:35:39.476Z,3.90
2023-02-13T22:38:43.087Z,4.00
2023-02-13T22:41:47.782Z,3.90
2023-02-13T22:44:51.161Z,4.00
2023-02-13T22:47:54.366Z,3.90
2023-02-13T22:50:58.147Z,3.90
2023-02-13T22:54:04.177Z,4.00
2023-02-13T22:57:09.022Z,3.90
2023-02-13T23:00:14.857Z,3.90
2023-02-13T23:03:18.339Z,4.00
2023-02-13T23:06:21.882Z,3.90
2023-02-13T23:09:25.718Z,3.90
2023-02-13T23:12:37.143Z,4.00
2023-02-13T23:15:40.455Z,4.00
2023-02-13T23:18:43.575Z,4.00
2023-02-13T23:21:46.766Z,4.00
2023-02-13T23:24:50.052Z,3.90
2023-02-13T23:27:56.675Z,4.00
2023-02-13T23:31:00.363Z,4.00
2023-02-13T23:34:08.406Z,3.90
2023-02-13T23:37:12.074Z,3.90
2023-02-13T23:40:16.820Z,3.90
2023-02-13T23:43:21.501Z,3.90
2023-02-13T23:46:30.884Z,4.00
2023-02-13T23:49:34.175Z,3.90
2023-02-13T23:52:37.508Z,3.90
2023-02-13T23:55:40.643Z,3.90
2023-02-13T23:58:45.566Z,3.90
